createdAt,value
2023-01-30T00:00:00.850Z,50.05
2023-01-30T00:00:23.498Z,49.99
2023-01-30T00:00:45.156Z,49.92
2023-01-30T00:01:12.889Z,49.93
2023-01-30T00:01:34.988Z,49.91
2023-01-30T00:01:58.120Z,49.77
2023-01-30T00:02:19.801Z,49.72
2023-01-30T00:02:41.411Z,49.65
2023-01-30T00:03:03.178Z,49.48
2023-01-30T00:03:25.415Z,49.48
2023-01-30T00:03:49.867Z,49.50
2023-01-30T00:04:12.553Z,49.53
2023-01-30T00:04:34.525Z,49.46
2023-01-30T00:04:56.187Z,49.32
2023-01-30T00:05:17.989Z,49.38
2023-01-30T00:05:40.970Z,49.42
2023-01-30T00:06:02.686Z,49.38
2023-01-30T00:06:25.184Z,49.40
2023-01-30T00:06:46.827Z,49.79
2023-01-30T00:07:08.599Z,49.79
2023-01-30T00:07:31.249Z,49.97
2023-01-30T00:07:52.853Z,49.95
2023-01-30T00:08:14.644Z,50.03
2023-01-30T00:08:36.544Z,49.95
2023-01-30T00:08:59.628Z,49.87
2023-01-30T00:09:21.609Z,49.63
2023-01-30T00:09:43.317Z,49.73
2023-01-30T00:10:05.871Z,49.63
2023-01-30T00:10:28.784Z,49.65
2023-01-30T00:10:50.665Z,49.57
2023-01-30T00:11:14.874Z,49.60
2023-01-30T00:11:37.814Z,49.49
2023-01-30T00:11:59.506Z,49.52
2023-01-30T00:12:21.354Z,49.64
2023-01-30T00:12:43.171Z,49.75
2023-01-30T00:13:05.050Z,49.76
2023-01-30T00:13:29.849Z,49.81
2023-01-30T00:13:51.766Z,49.75
2023-01-30T00:14:13.676Z,49.74
2023-01-30T00:14:36.551Z,49.70
2023-01-30T00:14:58.437Z,49.87
2023-01-30T00:15:20.286Z,49.86
2023-01-30T00:15:42.538Z,49.87
2023-01-30T00:16:05.190Z,49.76
2023-01-30T00:16:28.341Z,49.84
2023-01-30T00:16:50.011Z,50.04
2023-01-30T00:17:11.648Z,50.21
2023-01-30T00:17:33.415Z,50.25
2023-01-30T00:17:56.307Z,50.40
2023-01-30T00:18:18.224Z,50.21
2023-01-30T00:18:41.658Z,50.23
2023-01-30T00:19:05.918Z,50.10
2023-01-30T00:19:27.666Z,50.02
2023-01-30T00:19:49.574Z,49.95
2023-01-30T00:20:14.792Z,49.99
2023-01-30T00:20:38.842Z,50.08
2023-01-30T00:21:03.237Z,50.27
2023-01-30T00:21:24.876Z,50.43
2023-01-30T00:21:46.505Z,50.54
2023-01-30T00:22:09.380Z,50.62
2023-01-30T00:22:31.197Z,50.81
2023-01-30T00:23:00.804Z,50.65
2023-01-30T00:23:23.251Z,50.44
2023-01-30T00:23:46.405Z,50.61
2023-01-30T00:24:08.447Z,50.50
2023-01-30T00:24:30.319Z,50.45
2023-01-30T00:24:52.403Z,50.65
2023-01-30T00:25:14.429Z,50.61
2023-01-30T00:25:37.198Z,50.75
2023-01-30T00:25:59.516Z,50.54
2023-01-30T00:26:21.402Z,50.38
2023-01-30T00:26:43.148Z,50.27
2023-01-30T00:27:06.195Z,50.30
2023-01-30T00:27:28.006Z,50.35
2023-01-30T00:27:51.125Z,50.51
2023-01-30T00:28:12.755Z,50.73
2023-01-30T00:28:34.714Z,50.83
2023-01-30T00:28:57.977Z,51.05
2023-01-30T00:29:20.034Z,50.98
2023-01-30T00:29:42.336Z,50.87
2023-01-30T00:30:07.248Z,50.71
2023-01-30T00:30:30.056Z,50.61
2023-01-30T00:30:55.519Z,50.61
2023-01-30T00:31:18.542Z,50.54
2023-01-30T00:31:40.482Z,50.35
2023-01-30T00:32:02.338Z,50.30
2023-01-30T00:32:26.467Z,50.09
2023-01-30T00:32:48.243Z,49.80
2023-01-30T00:33:10.797Z,49.80
2023-01-30T00:33:32.463Z,49.80
2023-01-30T00:33:55.291Z,49.79
2023-01-30T00:34:20.309Z,49.76
2023-01-30T00:34:41.871Z,49.76
2023-01-30T00:35:04.179Z,49.72
2023-01-30T00:35:28.627Z,49.78
2023-01-30T00:35:52.516Z,49.73
2023-01-30T00:36:14.440Z,49.67
2023-01-30T00:36:36.192Z,49.52
2023-01-30T00:37:08.203Z,49.46
2023-01-30T00:37:30.348Z,49.21
2023-01-30T00:37:52.538Z,49.42
2023-01-30T00:38:15.185Z,49.43
2023-01-30T00:38:38.343Z,49.31
2023-01-30T00:39:02.280Z,49.16
2023-01-30T00:39:24.003Z,49.18
2023-01-30T00:39:45.888Z,49.12
2023-01-30T00:40:10.531Z,49.22
2023-01-30T00:40:33.004Z,49.16
2023-01-30T00:40:54.848Z,49.09
2023-01-30T00:41:19.017Z,48.97
2023-01-30T00:41:59.346Z,49.13
2023-01-30T00:42:39.901Z,49.39
2023-01-30T00:43:20.222Z,49.29
2023-01-30T00:44:00.338Z,49.16
2023-01-30T00:44:40.636Z,49.31
2023-01-30T00:45:22.208Z,49.73
2023-01-30T00:46:02.480Z,49.93
2023-01-30T00:46:48.090Z,50.25
2023-01-30T00:47:11.380Z,50.35
2023-01-30T00:47:33.253Z,50.18
2023-01-30T00:47:55.201Z,50.26
2023-01-30T00:48:16.980Z,50.35
2023-01-30T00:48:38.668Z,50.78
2023-01-30T00:49:01.524Z,51.11
2023-01-30T00:49:24.586Z,51.29
2023-01-30T00:49:46.392Z,51.20
2023-01-30T00:50:10.619Z,51.18
2023-01-30T00:50:42.516Z,51.20
2023-01-30T00:51:06.957Z,51.02
2023-01-30T00:51:28.684Z,51.03
2023-01-30T00:51:51.817Z,50.77
2023-01-30T00:52:13.496Z,50.61
2023-01-30T00:52:35.227Z,50.45
2023-01-30T00:52:56.902Z,50.26
2023-01-30T00:53:19.073Z,50.10
2023-01-30T00:53:42.256Z,50.25
2023-01-30T00:54:04.458Z,50.04
2023-01-30T00:54:26.609Z,50.15
2023-01-30T00:54:48.275Z,50.02
2023-01-30T00:55:11.168Z,50.08
2023-01-30T00:55:33.032Z,50.18
2023-01-30T00:55:55.473Z,50.62
2023-01-30T00:56:17.189Z,50.61
2023-01-30T00:56:40.166Z,50.68
2023-01-30T00:57:02.028Z,50.61
2023-01-30T00:57:23.701Z,50.66
2023-01-30T00:57:45.625Z,50.61
2023-01-30T00:58:09.184Z,50.55
2023-01-30T00:58:30.827Z,50.32
2023-01-30T00:58:52.479Z,50.38
2023-01-30T00:59:14.125Z,50.25
2023-01-30T00:59:36.690Z,50.29
2023-01-30T00:59:58.874Z,50.09
2023-01-30T01:00:20.933Z,49.95
2023-01-30T01:00:42.673Z,49.90
2023-01-30T01:01:04.804Z,49.94
2023-01-30T01:01:27.658Z,49.95
2023-01-30T01:01:49.695Z,50.42
2023-01-30T01:02:11.652Z,50.20
2023-01-30T01:02:34.613Z,50.19
2023-01-30T01:02:56.369Z,50.17
2023-01-30T01:03:19.720Z,50.13
2023-01-30T01:03:41.867Z,50.06
2023-01-30T01:04:04.201Z,50.06
2023-01-30T01:04:27.516Z,49.91
2023-01-30T01:04:50.480Z,49.81
2023-01-30T01:05:13.165Z,49.91
2023-01-30T01:05:35.404Z,49.75
2023-01-30T01:05:57.243Z,49.75
2023-01-30T01:06:20.287Z,49.60
2023-01-30T01:06:42.094Z,49.56
2023-01-30T01:07:03.717Z,49.53
2023-01-30T01:07:25.381Z,49.90
2023-01-30T01:07:48.477Z,50.57
2023-01-30T01:08:10.689Z,50.51
2023-01-30T01:08:32.492Z,50.50
2023-01-30T01:08:54.247Z,50.62
2023-01-30T01:09:17.236Z,50.66
2023-01-30T01:09:39.101Z,50.95
2023-01-30T01:10:00.872Z,51.12
2023-01-30T01:10:22.898Z,51.05
2023-01-30T01:10:45.008Z,51.20
2023-01-30T01:11:08.039Z,51.21
2023-01-30T01:11:29.866Z,51.15
2023-01-30T01:11:51.517Z,50.97
2023-01-30T01:12:13.302Z,50.93
2023-01-30T01:12:36.427Z,50.73
2023-01-30T01:12:58.510Z,50.82
2023-01-30T01:13:20.256Z,50.77
2023-01-30T01:13:42.253Z,50.69
2023-01-30T01:14:08.371Z,50.65
2023-01-30T01:14:30.094Z,50.62
2023-01-30T01:14:52.101Z,50.53
2023-01-30T01:15:14.633Z,50.25
2023-01-30T01:15:36.540Z,50.39
2023-01-30T01:15:59.470Z,50.32
2023-01-30T01:16:21.673Z,50.15
2023-01-30T01:16:43.933Z,50.11
2023-01-30T01:17:05.930Z,49.96
2023-01-30T01:17:27.761Z,50.24
2023-01-30T01:17:51.353Z,50.26
2023-01-30T01:18:13.124Z,50.38
2023-01-30T01:18:34.847Z,50.18
2023-01-30T01:18:56.638Z,50.14
2023-01-30T01:19:19.678Z,49.92
2023-01-30T01:19:42.877Z,49.81
2023-01-30T01:20:05.802Z,49.94
2023-01-30T01:20:27.923Z,50.44
2023-01-30T01:20:49.839Z,50.57
2023-01-30T01:21:13.195Z,50.92
2023-01-30T01:21:34.877Z,50.92
2023-01-30T01:21:56.546Z,50.71
2023-01-30T01:22:18.285Z,50.71
2023-01-30T01:22:41.909Z,50.84
2023-01-30T01:23:03.701Z,50.72
2023-01-30T01:23:25.512Z,50.66
2023-01-30T01:23:51.345Z,50.57
2023-01-30T01:24:15.389Z,50.28
2023-01-30T01:24:37.196Z,50.30
2023-01-30T01:24:59.041Z,50.40
2023-01-30T01:25:22.036Z,50.62
2023-01-30T01:25:43.734Z,50.61
2023-01-30T01:26:05.848Z,50.49
2023-01-30T01:26:30.410Z,50.44
2023-01-30T01:26:52.163Z,50.21
2023-01-30T01:27:13.826Z,50.27
2023-01-30T01:27:35.573Z,50.25
2023-01-30T01:27:58.244Z,50.30
2023-01-30T01:28:22.290Z,50.30
2023-01-30T01:28:44.013Z,50.20
2023-01-30T01:29:05.845Z,50.17
2023-01-30T01:29:28.514Z,50.06
2023-01-30T01:29:52.932Z,49.91
2023-01-30T01:30:14.981Z,49.87
2023-01-30T01:30:38.510Z,49.97
2023-01-30T01:31:47.732Z,49.51
2023-01-30T01:32:10.773Z,49.54
2023-01-30T01:32:32.662Z,49.48
2023-01-30T01:32:55.296Z,49.48
2023-01-30T01:33:16.965Z,49.52
2023-01-30T01:33:38.569Z,49.71
2023-01-30T01:34:00.204Z,49.66
2023-01-30T01:34:21.792Z,49.56
2023-01-30T01:34:45.737Z,49.47
2023-01-30T01:35:08.225Z,49.34
2023-01-30T01:35:29.808Z,49.37
2023-01-30T01:35:51.422Z,49.17
2023-01-30T01:36:20.026Z,49.19
2023-01-30T01:36:54.392Z,49.28
2023-01-30T01:37:16.479Z,49.22
2023-01-30T01:37:38.437Z,49.20
2023-01-30T01:38:00.120Z,49.20
2023-01-30T01:38:22.923Z,49.25
2023-01-30T01:38:46.327Z,49.49
2023-01-30T01:39:08.319Z,49.79
2023-01-30T01:39:51.290Z,49.87
2023-01-30T01:40:36.253Z,50.19
2023-01-30T01:41:06.429Z,50.47
2023-01-30T01:41:30.309Z,50.38
2023-01-30T01:41:52.120Z,50.24
2023-01-30T01:42:15.776Z,50.21
2023-01-30T01:42:39.101Z,50.28
2023-01-30T01:43:01.240Z,50.10
2023-01-30T01:43:27.156Z,50.04
2023-01-30T01:44:04.457Z,49.92
2023-01-30T01:44:49.894Z,49.89
2023-01-30T01:45:19.808Z,50.13
2023-01-30T01:45:43.649Z,50.07
2023-01-30T01:46:15.387Z,50.04
2023-01-30T01:46:43.561Z,50.26
2023-01-30T01:47:08.729Z,50.43
2023-01-30T01:47:34.796Z,50.75
2023-01-30T01:48:02.601Z,50.79
2023-01-30T01:48:31.250Z,50.71
2023-01-30T01:48:59.416Z,50.57
2023-01-30T01:49:26.449Z,50.63
2023-01-30T01:49:52.217Z,50.91
2023-01-30T01:50:22.555Z,50.86
2023-01-30T01:50:50.275Z,50.70
2023-01-30T01:51:17.409Z,50.47
2023-01-30T01:51:43.476Z,50.32
2023-01-30T01:52:09.541Z,50.47
2023-01-30T01:52:32.773Z,50.19
2023-01-30T01:52:58.249Z,50.24
2023-01-30T01:53:26.790Z,50.25
2023-01-30T01:53:52.850Z,50.35
2023-01-30T01:54:18.512Z,50.13
2023-01-30T01:54:45.169Z,50.12
2023-01-30T01:55:07.745Z,50.03
2023-01-30T01:55:30.421Z,49.84
2023-01-30T01:55:55.749Z,49.74
2023-01-30T01:56:19.893Z,49.65
2023-01-30T01:56:47.100Z,49.58
2023-01-30T01:57:16.207Z,49.44
2023-01-30T01:57:42.571Z,49.22
2023-01-30T01:58:10.296Z,49.46
2023-01-30T01:58:37.269Z,49.30
2023-01-30T01:59:04.562Z,49.14
2023-01-30T01:59:32.920Z,49.46
2023-01-30T02:00:02.483Z,49.92
2023-01-30T02:00:34.411Z,50.05
2023-01-30T02:00:59.161Z,50.01
2023-01-30T02:01:22.133Z,50.15
2023-01-30T02:01:44.468Z,50.19
2023-01-30T02:02:09.199Z,50.15
2023-01-30T02:02:30.965Z,50.48
2023-01-30T02:02:58.014Z,50.21
2023-01-30T02:03:24.022Z,50.24
2023-01-30T02:03:50.719Z,50.24
2023-01-30T02:04:13.426Z,49.94
2023-01-30T02:05:01.821Z,50.02
2023-01-30T02:05:28.546Z,50.34
2023-01-30T02:05:57.766Z,50.30
2023-01-30T02:06:22.494Z,50.11
2023-01-30T02:06:44.177Z,50.26
2023-01-30T02:07:06.215Z,50.24
2023-01-30T02:07:33.390Z,50.25
2023-01-30T02:08:01.733Z,50.15
2023-01-30T02:08:27.317Z,50.27
2023-01-30T02:08:53.777Z,50.32
2023-01-30T02:09:16.421Z,50.02
2023-01-30T02:09:38.595Z,50.16
2023-01-30T02:10:01.117Z,50.15
2023-01-30T02:10:25.515Z,50.12
2023-01-30T02:10:54.052Z,50.05
2023-01-30T02:11:25.612Z,50.24
2023-01-30T02:11:54.522Z,50.48
2023-01-30T02:12:16.798Z,50.75
2023-01-30T02:12:39.997Z,50.77
2023-01-30T02:13:02.564Z,50.75
2023-01-30T02:13:24.927Z,50.58
2023-01-30T02:13:48.228Z,50.57
2023-01-30T02:14:11.335Z,50.68
2023-01-30T02:14:35.263Z,50.66
2023-01-30T02:14:59.069Z,50.51
2023-01-30T02:15:20.759Z,50.73
2023-01-30T02:15:42.720Z,50.92
2023-01-30T02:16:07.611Z,50.65
2023-01-30T02:16:29.329Z,50.83
2023-01-30T02:16:51.016Z,50.83
2023-01-30T02:17:12.767Z,50.55
2023-01-30T02:17:34.446Z,51.01
2023-01-30T02:17:57.958Z,50.96
2023-01-30T02:18:20.010Z,50.66
2023-01-30T02:18:44.659Z,50.72
2023-01-30T02:19:16.197Z,50.51
2023-01-30T02:19:50.620Z,50.61
2023-01-30T02:20:21.467Z,50.68
2023-01-30T02:21:06.380Z,50.40
2023-01-30T02:21:56.097Z,50.58
2023-01-30T02:22:33.117Z,50.40
2023-01-30T02:23:39.175Z,50.91
2023-01-30T02:24:27.367Z,51.07
2023-01-30T02:25:23.328Z,50.78
2023-01-30T02:26:19.260Z,50.75
2023-01-30T02:27:21.769Z,51.34
2023-01-30T02:28:04.198Z,51.81
2023-01-30T02:29:01.522Z,51.89
2023-01-30T02:29:55.714Z,51.93
2023-01-30T02:31:01.925Z,51.59
2023-01-30T02:31:32.944Z,51.37
2023-01-30T02:32:03.904Z,51.21
2023-01-30T02:32:35.855Z,51.52
2023-01-30T02:33:08.725Z,51.39
2023-01-30T02:33:41.169Z,51.14
2023-01-30T02:34:27.703Z,51.46
2023-01-30T02:34:57.529Z,50.92
2023-01-30T02:35:28.931Z,51.00
2023-01-30T02:36:05.181Z,50.71
2023-01-30T02:36:32.646Z,50.49
2023-01-30T02:37:02.659Z,50.36
2023-01-30T02:37:37.160Z,50.18
2023-01-30T02:38:13.834Z,50.35
2023-01-30T02:38:42.354Z,51.20
2023-01-30T02:39:09.419Z,51.24
2023-01-30T02:39:41.993Z,51.30
2023-01-30T02:40:16.710Z,51.41
2023-01-30T02:40:44.801Z,51.23
2023-01-30T02:41:20.130Z,51.09
2023-01-30T02:41:53.283Z,50.92
2023-01-30T02:42:26.842Z,50.93
2023-01-30T02:42:56.703Z,51.02
2023-01-30T02:43:29.455Z,51.06
2023-01-30T02:43:59.816Z,51.11
2023-01-30T02:44:30.097Z,50.91
2023-01-30T02:44:59.988Z,50.91
2023-01-30T02:45:27.505Z,50.88
2023-01-30T02:45:58.039Z,50.76
2023-01-30T02:46:25.484Z,50.65
2023-01-30T02:46:58.617Z,50.57
2023-01-30T02:47:31.035Z,50.67
2023-01-30T02:48:00.318Z,50.85
2023-01-30T02:48:25.489Z,50.85
2023-01-30T02:48:52.279Z,50.82
2023-01-30T02:49:20.419Z,50.99
2023-01-30T02:49:48.192Z,50.71
2023-01-30T02:50:18.387Z,50.95
2023-01-30T02:50:44.713Z,51.21
2023-01-30T02:51:09.908Z,51.25
2023-01-30T02:51:35.192Z,51.94
2023-01-30T02:52:00.696Z,51.86
2023-01-30T02:52:24.477Z,51.86
2023-01-30T02:52:48.718Z,51.70
2023-01-30T02:53:12.570Z,51.71
2023-01-30T02:53:36.673Z,51.52
2023-01-30T02:54:00.431Z,51.47
2023-01-30T02:54:23.161Z,51.53
2023-01-30T02:54:44.844Z,51.70
2023-01-30T02:55:08.925Z,51.59
2023-01-30T02:55:31.445Z,51.45
2023-01-30T02:55:54.073Z,51.68
2023-01-30T02:56:15.999Z,51.67
2023-01-30T02:56:46.880Z,51.80
2023-01-30T02:57:18.794Z,52.22
2023-01-30T02:57:44.162Z,52.27
2023-01-30T02:58:09.454Z,52.38
2023-01-30T02:58:36.525Z,52.35
2023-01-30T02:59:08.287Z,52.67
2023-01-30T02:59:35.807Z,52.60
2023-01-30T03:00:02.383Z,52.71
2023-01-30T03:00:35.226Z,52.61
2023-01-30T03:01:40.135Z,52.35
2023-01-30T03:02:29.895Z,52.21
2023-01-30T03:03:09.071Z,51.83
2023-01-30T03:03:51.737Z,51.64
2023-01-30T03:04:31.917Z,51.29
2023-01-30T03:05:19.708Z,51.72
2023-01-30T03:06:04.983Z,51.60
2023-01-30T03:06:37.689Z,51.71
2023-01-30T03:07:13.362Z,52.34
2023-01-30T03:07:44.430Z,52.23
2023-01-30T03:08:17.963Z,52.20
2023-01-30T03:08:50.414Z,51.91
2023-01-30T03:09:18.555Z,52.08
2023-01-30T03:09:47.299Z,51.98
2023-01-30T03:10:19.732Z,52.16
2023-01-30T03:10:55.860Z,52.03
2023-01-30T03:11:17.971Z,51.84
2023-01-30T03:11:48.479Z,51.76
2023-01-30T03:12:18.799Z,51.88
2023-01-30T03:12:48.883Z,51.73
2023-01-30T03:13:19.550Z,51.60
2023-01-30T03:13:50.474Z,51.54
2023-01-30T03:14:20.033Z,51.37
2023-01-30T03:14:47.656Z,51.18
2023-01-30T03:15:17.202Z,51.11
2023-01-30T03:15:43.016Z,51.21
2023-01-30T03:16:12.472Z,51.41
2023-01-30T03:16:41.244Z,52.24
2023-01-30T03:17:06.445Z,52.34
2023-01-30T03:17:29.415Z,52.22
2023-01-30T03:17:52.192Z,52.11
2023-01-30T03:18:18.956Z,51.95
2023-01-30T03:18:41.741Z,51.84
2023-01-30T03:19:05.957Z,51.65
2023-01-30T03:19:29.805Z,51.61
2023-01-30T03:19:55.240Z,51.34
2023-01-30T03:20:20.366Z,51.61
2023-01-30T03:20:43.149Z,51.63
2023-01-30T03:21:06.306Z,51.44
2023-01-30T03:21:29.402Z,51.76
2023-01-30T03:21:52.703Z,51.85
2023-01-30T03:22:15.986Z,51.51
2023-01-30T03:22:39.156Z,51.64
2023-01-30T03:23:02.956Z,51.79
2023-01-30T03:23:26.976Z,51.64
2023-01-30T03:23:49.025Z,51.79
2023-01-30T03:24:11.200Z,51.82
2023-01-30T03:24:33.838Z,51.64
2023-01-30T03:24:55.630Z,51.57
2023-01-30T03:25:20.877Z,51.38
2023-01-30T03:25:47.338Z,51.29
2023-01-30T03:26:17.253Z,51.12
2023-01-30T03:26:46.743Z,51.03
2023-01-30T03:27:12.709Z,50.91
2023-01-30T03:27:37.218Z,50.81
2023-01-30T03:28:04.148Z,51.08
2023-01-30T03:28:28.169Z,51.54
2023-01-30T03:28:51.767Z,51.63
2023-01-30T03:29:14.972Z,51.52
2023-01-30T03:29:37.529Z,51.50
2023-01-30T03:30:02.298Z,51.43
2023-01-30T03:30:26.461Z,51.25
2023-01-30T03:30:56.399Z,51.25
2023-01-30T03:31:18.644Z,51.01
2023-01-30T03:31:42.948Z,50.90
2023-01-30T03:32:05.363Z,50.91
2023-01-30T03:32:27.276Z,50.71
2023-01-30T03:32:49.854Z,50.60
2023-01-30T03:33:13.600Z,50.70
2023-01-30T03:33:38.213Z,50.80
2023-01-30T03:34:02.512Z,50.88
2023-01-30T03:34:26.159Z,50.80
2023-01-30T03:34:49.139Z,50.98
2023-01-30T03:35:10.828Z,50.73
2023-01-30T03:35:33.481Z,50.73
2023-01-30T03:35:55.647Z,50.83
2023-01-30T03:36:19.961Z,51.06
2023-01-30T03:36:43.489Z,50.74
2023-01-30T03:37:06.162Z,51.03
2023-01-30T03:37:30.936Z,50.94
2023-01-30T03:37:53.883Z,51.13
2023-01-30T03:38:15.622Z,51.00
2023-01-30T03:38:37.415Z,51.09
2023-01-30T03:38:59.510Z,51.04
2023-01-30T03:39:24.451Z,50.76
2023-01-30T03:39:46.841Z,50.89
2023-01-30T03:40:12.275Z,50.62
2023-01-30T03:40:37.744Z,50.40
2023-01-30T03:41:00.049Z,50.35
2023-01-30T03:41:24.517Z,50.33
2023-01-30T03:41:46.701Z,50.33
2023-01-30T03:42:13.599Z,50.21
2023-01-30T03:42:36.882Z,50.22
2023-01-30T03:42:58.934Z,50.40
2023-01-30T03:43:21.684Z,50.57
2023-01-30T03:43:45.060Z,50.62
2023-01-30T03:44:07.263Z,50.65
2023-01-30T03:44:28.906Z,50.83
2023-01-30T03:44:51.159Z,50.99
2023-01-30T03:45:16.632Z,51.08
2023-01-30T03:45:39.500Z,51.27
2023-01-30T03:46:02.285Z,51.19
2023-01-30T03:46:24.441Z,51.10
2023-01-30T03:46:49.373Z,51.00
2023-01-30T03:47:11.040Z,50.73
2023-01-30T03:47:32.924Z,50.69
2023-01-30T03:47:55.290Z,50.61
2023-01-30T03:48:16.943Z,50.53
2023-01-30T03:48:39.619Z,50.61
2023-01-30T03:49:01.914Z,50.68
2023-01-30T03:49:23.657Z,51.02
2023-01-30T03:49:46.253Z,51.08
2023-01-30T03:50:09.424Z,50.96
2023-01-30T03:50:31.544Z,50.97
2023-01-30T03:50:54.246Z,51.09
2023-01-30T03:51:16.020Z,50.92
2023-01-30T03:51:38.013Z,51.03
2023-01-30T03:51:59.891Z,51.08
2023-01-30T03:52:22.550Z,50.98
2023-01-30T03:52:44.210Z,51.01
2023-01-30T03:53:09.472Z,51.07
2023-01-30T03:53:31.204Z,51.00
2023-01-30T03:53:54.616Z,50.96
2023-01-30T03:54:17.242Z,50.96
2023-01-30T03:54:38.865Z,51.31
2023-01-30T03:55:00.503Z,51.30
2023-01-30T03:55:22.171Z,51.29
2023-01-30T03:55:45.609Z,51.32
2023-01-30T03:56:07.476Z,51.28
2023-01-30T03:56:31.497Z,51.27
2023-01-30T03:56:54.278Z,51.20
2023-01-30T03:57:16.089Z,51.40
2023-01-30T03:57:38.225Z,51.52
2023-01-30T03:57:59.912Z,51.58
2023-01-30T03:58:25.755Z,51.38
2023-01-30T03:58:47.526Z,51.23
2023-01-30T03:59:23.121Z,51.33
2023-01-30T03:59:55.600Z,51.26
2023-01-30T04:00:18.183Z,51.36
2023-01-30T04:00:43.411Z,51.43
2023-01-30T04:01:05.352Z,51.36
2023-01-30T04:01:28.061Z,51.37
2023-01-30T04:01:51.059Z,51.17
2023-01-30T04:02:13.856Z,51.37
2023-01-30T04:02:38.537Z,51.62
2023-01-30T04:03:01.086Z,51.56
2023-01-30T04:03:22.743Z,51.47
2023-01-30T04:03:46.139Z,51.60
2023-01-30T04:04:08.625Z,51.50
2023-01-30T04:04:31.264Z,51.22
2023-01-30T04:04:53.500Z,51.25
2023-01-30T04:05:15.628Z,51.19
2023-01-30T04:05:43.439Z,51.37
2023-01-30T04:06:06.249Z,51.53
2023-01-30T04:06:27.903Z,51.54
2023-01-30T04:06:49.693Z,51.66
2023-01-30T04:07:11.320Z,51.65
2023-01-30T04:07:35.680Z,51.76
2023-01-30T04:07:58.075Z,51.55
2023-01-30T04:08:19.750Z,51.59
2023-01-30T04:08:42.596Z,51.69
2023-01-30T04:09:10.129Z,51.36
2023-01-30T04:09:36.657Z,51.20
2023-01-30T04:09:59.346Z,51.20
2023-01-30T04:10:21.388Z,51.30
2023-01-30T04:10:42.967Z,51.45
2023-01-30T04:11:05.078Z,51.15
2023-01-30T04:11:27.840Z,51.14
2023-01-30T04:11:49.560Z,51.28
2023-01-30T04:12:12.882Z,51.31
2023-01-30T04:12:42.974Z,51.20
2023-01-30T04:13:06.441Z,51.44
2023-01-30T04:13:28.405Z,51.37
2023-01-30T04:13:50.063Z,51.58
2023-01-30T04:14:11.890Z,51.77
2023-01-30T04:14:46.799Z,51.77
2023-01-30T04:15:17.672Z,51.75
2023-01-30T04:16:18.352Z,51.53
2023-01-30T04:17:01.363Z,51.53
2023-01-30T04:17:35.185Z,51.89
2023-01-30T04:18:16.369Z,52.27
2023-01-30T04:18:44.881Z,52.21
2023-01-30T04:19:13.150Z,52.15
2023-01-30T04:19:36.655Z,52.38
2023-01-30T04:19:59.083Z,52.38
2023-01-30T04:20:21.286Z,52.39
2023-01-30T04:20:47.240Z,52.21
2023-01-30T04:21:11.815Z,51.93
2023-01-30T04:21:34.574Z,51.83
2023-01-30T04:21:56.291Z,51.81
2023-01-30T04:22:18.046Z,51.95
2023-01-30T04:22:40.727Z,51.94
2023-01-30T04:23:02.650Z,51.90
2023-01-30T04:23:25.278Z,51.80
2023-01-30T04:23:47.081Z,51.80
2023-01-30T04:24:10.356Z,51.95
2023-01-30T04:24:32.045Z,51.84
2023-01-30T04:24:53.671Z,51.68
2023-01-30T04:25:16.302Z,51.92
2023-01-30T04:25:39.442Z,51.92
2023-01-30T04:26:03.720Z,52.14
2023-01-30T04:26:25.464Z,52.39
2023-01-30T04:26:47.264Z,52.37
2023-01-30T04:27:10.220Z,52.05
2023-01-30T04:27:36.911Z,52.20
2023-01-30T04:28:06.900Z,51.98
2023-01-30T04:28:32.779Z,52.23
2023-01-30T04:28:54.492Z,52.27
2023-01-30T04:29:16.072Z,52.04
2023-01-30T04:29:39.346Z,51.91
2023-01-30T04:30:06.612Z,51.77
2023-01-30T04:30:28.278Z,51.59
2023-01-30T04:31:04.402Z,51.74
2023-01-30T04:31:38.807Z,51.46
2023-01-30T04:32:22.618Z,51.52
2023-01-30T04:32:44.249Z,51.62
2023-01-30T04:33:06.281Z,51.32
2023-01-30T04:33:30.003Z,51.30
2023-01-30T04:33:51.798Z,51.30
2023-01-30T04:34:13.768Z,51.10
2023-01-30T04:34:35.410Z,51.02
2023-01-30T04:34:58.073Z,51.09
2023-01-30T04:35:20.020Z,50.95
2023-01-30T04:35:50.878Z,51.24
2023-01-30T04:36:13.929Z,51.25
2023-01-30T04:36:36.901Z,51.36
2023-01-30T04:36:58.958Z,51.25
2023-01-30T04:37:21.394Z,51.50
2023-01-30T04:37:45.617Z,51.43
2023-01-30T04:38:11.491Z,51.40
2023-01-30T04:38:34.702Z,51.79
2023-01-30T04:38:58.250Z,51.89
2023-01-30T04:39:22.090Z,51.87
2023-01-30T04:39:43.907Z,51.86
2023-01-30T04:40:06.727Z,51.74
2023-01-30T04:40:29.613Z,51.60
2023-01-30T04:40:54.152Z,51.69
2023-01-30T04:41:15.826Z,51.87
2023-01-30T04:41:38.558Z,51.85
2023-01-30T04:42:01.177Z,52.00
2023-01-30T04:42:25.336Z,52.09
2023-01-30T04:43:09.924Z,52.23
2023-01-30T04:43:55.461Z,52.72
2023-01-30T04:44:27.528Z,52.71
2023-01-30T04:45:16.615Z,52.47
2023-01-30T04:45:42.298Z,52.52
2023-01-30T04:46:04.874Z,52.65
2023-01-30T04:46:26.648Z,52.64
2023-01-30T04:46:49.250Z,52.79
2023-01-30T04:47:11.449Z,52.87
2023-01-30T04:47:34.615Z,53.00
2023-01-30T04:47:56.301Z,53.11
2023-01-30T04:48:19.774Z,52.99
2023-01-30T04:48:41.567Z,53.07
2023-01-30T04:49:04.068Z,53.27
2023-01-30T04:49:26.919Z,53.40
2023-01-30T04:49:49.113Z,53.38
2023-01-30T04:50:11.380Z,53.49
2023-01-30T04:50:33.951Z,53.88
2023-01-30T04:50:57.516Z,53.71
2023-01-30T04:51:19.326Z,53.63
2023-01-30T04:51:41.846Z,53.33
2023-01-30T04:52:05.396Z,53.22
2023-01-30T04:52:26.989Z,53.19
2023-01-30T04:52:48.597Z,53.27
2023-01-30T04:53:11.276Z,52.99
2023-01-30T04:53:34.579Z,53.18
2023-01-30T04:53:57.464Z,53.48
2023-01-30T04:54:19.176Z,52.99
2023-01-30T04:54:40.835Z,52.87
2023-01-30T04:55:02.525Z,52.72
2023-01-30T04:55:25.183Z,52.54
2023-01-30T04:55:48.257Z,52.50
2023-01-30T04:56:09.944Z,52.36
2023-01-30T04:56:32.575Z,52.25
2023-01-30T04:56:54.240Z,52.10
2023-01-30T04:57:15.903Z,52.26
2023-01-30T04:57:37.583Z,52.17
2023-01-30T04:58:00.220Z,52.29
2023-01-30T04:58:22.097Z,52.31
2023-01-30T04:58:43.831Z,52.27
2023-01-30T04:59:06.806Z,52.16
2023-01-30T04:59:34.728Z,52.09
2023-01-30T04:59:59.994Z,52.00
2023-01-30T05:00:22.431Z,52.11
2023-01-30T05:00:49.604Z,51.92
2023-01-30T05:01:16.137Z,52.31
2023-01-30T05:01:40.713Z,52.23
2023-01-30T05:02:02.749Z,52.17
2023-01-30T05:02:24.405Z,52.20
2023-01-30T05:02:47.662Z,52.49
2023-01-30T05:03:10.260Z,52.41
2023-01-30T05:03:32.368Z,52.39
2023-01-30T05:03:54.726Z,52.61
2023-01-30T05:04:16.445Z,52.66
2023-01-30T05:04:39.307Z,53.45
2023-01-30T05:05:01.445Z,53.48
2023-01-30T05:05:23.941Z,53.37
2023-01-30T05:05:47.924Z,53.43
2023-01-30T05:06:12.915Z,53.23
2023-01-30T05:06:36.841Z,53.20
2023-01-30T05:06:58.820Z,53.13
2023-01-30T05:07:21.363Z,53.08
2023-01-30T05:07:43.100Z,52.97
2023-01-30T05:08:06.396Z,52.86
2023-01-30T05:08:28.241Z,52.82
2023-01-30T05:08:50.150Z,52.87
2023-01-30T05:09:11.899Z,52.80
2023-01-30T05:09:39.172Z,52.70
2023-01-30T05:10:02.780Z,52.78
2023-01-30T05:10:24.420Z,52.77
2023-01-30T05:10:46.220Z,52.68
2023-01-30T05:11:08.869Z,52.57
2023-01-30T05:11:30.972Z,52.53
2023-01-30T05:11:52.578Z,52.43
2023-01-30T05:12:15.198Z,52.34
2023-01-30T05:12:36.789Z,52.38
2023-01-30T05:13:02.314Z,52.67
2023-01-30T05:13:23.903Z,52.62
2023-01-30T05:13:46.859Z,52.81
2023-01-30T05:14:08.449Z,52.74
2023-01-30T05:14:30.107Z,52.81
2023-01-30T05:14:51.702Z,52.87
2023-01-30T05:15:14.877Z,52.72
2023-01-30T05:15:36.501Z,52.81
2023-01-30T05:15:58.171Z,52.73
2023-01-30T05:16:21.965Z,52.94
2023-01-30T05:16:44.535Z,52.89
2023-01-30T05:17:06.160Z,52.75
2023-01-30T05:17:27.972Z,52.85
2023-01-30T05:17:50.917Z,52.93
2023-01-30T05:18:13.481Z,52.80
2023-01-30T05:18:35.115Z,52.98
2023-01-30T05:18:56.807Z,52.94
2023-01-30T05:19:18.700Z,52.87
2023-01-30T05:19:41.324Z,52.75
2023-01-30T05:20:03.411Z,52.93
2023-01-30T05:20:25.952Z,52.86
2023-01-30T05:20:50.463Z,52.78
2023-01-30T05:21:16.073Z,52.78
2023-01-30T05:21:37.716Z,52.76
2023-01-30T05:22:02.711Z,52.73
2023-01-30T05:22:28.562Z,52.73
2023-01-30T05:22:54.340Z,52.73
2023-01-30T05:23:16.254Z,52.73
2023-01-30T05:23:43.782Z,52.75
2023-01-30T05:24:06.468Z,52.80
2023-01-30T05:24:28.388Z,52.83
2023-01-30T05:24:52.151Z,52.53
2023-01-30T05:25:15.201Z,52.98
2023-01-30T05:25:37.612Z,52.97
2023-01-30T05:26:00.131Z,52.99